Time,TemperatureF,DewpointF,PressureIn,WindDirection,WindDirectionDegrees,WindSpeedMPH,WindSpeedGustMPH,Humidity,HourlyPrecipIn,Conditions,Clouds,dailyrainin,SoftwareType,DateUTC
2013-06-19 08:53:00,63.0,55.0,30.13,ENE,78,0.0,-999.0,74,-99.99,,,-99.99,,2013-06-19 12:53:00,
2013-06-19 09:02:00,63.0,55.0,30.13,ENE,78,0.0,-999.0,74,-99.99,,,-99.99,,2013-06-19 13:02:00,
2013-06-19 09:12:00,64.0,55.0,30.13,ENE,78,0.0,-999.0,72,-99.99,,,-99.99,,2013-06-19 13:12:00,
2013-06-19 09:22:00,65.0,55.0,30.13,ENE,78,0.0,-999.0,71,-99.99,,,-99.99,,2013-06-19 13:22:00,
2013-06-19 09:33:00,65.0,55.0,30.13,ENE,78,0.0,-999.0,71,-99.99,,,-99.99,,2013-06-19 13:33:00,
2013-06-19 09:42:00,65.0,55.0,30.13,ENE,78,0.0,-999.0,69,-99.99,,,-99.99,,2013-06-19 13:42:00,
2013-06-19 09:54:00,66.0,53.0,30.14,East,93,1.0,-999.0,64,-99.99,,,-99.99,,2013-06-19 13:54:00,
2013-06-19 10:02:00,66.0,53.0,30.14,East,93,1.0,-999.0,64,-99.99,,,-99.99,,2013-06-19 14:02:00,
2013-06-19 10:12:00,67.0,54.0,30.14,East,91,0.0,-999.0,64,-99.99,,,-99.99,,2013-06-19 14:12:00,
2013-06-19 10:22:00,67.0,54.0,30.14,East,91,0.0,-999.0,62,-99.99,,,-99.99,,2013-06-19 14:22:00,
2013-06-19 10:33:00,67.0,54.0,30.14,East,91,0.0,-999.0,62,-99.99,,,-99.99,,2013-06-19 14:33:00,
2013-06-19 10:44:00,67.0,52.0,30.13,ENE,62,1.0,-999.0,59,-99.99,,,-99.99,,2013-06-19 14:44:00,
2013-06-19 10:53:00,68.0,53.0,30.13,East,86,2.0,-999.0,58,-99.99,,,-99.99,,2013-06-19 14:53:00,
2013-06-19 11:01:00,68.0,56.0,30.13,NE,53,0.0,-999.0,65,-99.99,,,-99.99,,2013-06-19 15:01:00,
2013-06-19 11:11:00,68.0,56.0,30.13,NE,53,0.0,-999.0,65,-99.99,,,-99.99,,2013-06-19 15:11:00,
2013-06-19 11:33:00,68.0,57.0,30.14,NW,323,0.0,-999.0,69,-99.99,,,-99.99,,2013-06-19 15:33:00,
2013-06-19 11:53:00,68.0,56.0,30.14,ENE,67,0.0,-999.0,65,-99.99,,,-99.99,,2013-06-19 15:53:00,
2013-06-19 12:01:00,68.0,56.0,30.14,ENE,67,0.0,-999.0,65,-99.99,,,-99.99,,2013-06-19 16:01:00,
2013-06-19 12:11:00,68.0,56.0,30.13,NW,311,0.0,-999.0,65,-99.99,,,-99.99,,2013-06-19 16:11:00,
2013-06-19 12:22:00,68.0,54.0,30.14,North,5,1.0,-999.0,62,-99.99,,,-99.99,,2013-06-19 16:22:00,
2013-06-19 12:34:00,68.0,54.0,30.14,North,5,1.0,-999.0,62,-99.99,,,-99.99,,2013-06-19 16:34:00,
2013-06-19 12:43:00,69.0,54.0,30.14,NNE,22,1.0,-999.0,59,-99.99,,,-99.99,,2013-06-19 16:43:00,
2013-06-19 12:53:00,69.0,54.0,30.14,NNE,24,1.0,-999.0,59,-99.99,,,-99.99,,2013-06-19 16:53:00,
2013-06-19 13:02:00,69.0,54.0,30.14,NNE,24,1.0,-999.0,59,-99.99,,,-99.99,,2013-06-19 17:02:00,
2013-06-19 13:12:00,69.0,53.0,30.14,NNE,12,1.0,-999.0,56,-99.99,,,-99.99,,2013-06-19 17:12:00,
2013-06-19 13:22:00,69.0,53.0,30.14,North,349,1.0,-999.0,57,-99.99,,,-99.99,,2013-06-19 17:22:00,
2013-06-19 13:34:00,69.0,53.0,30.14,North,349,1.0,-999.0,57,-99.99,,,-99.99,,2013-06-19 17:34:00,
2013-06-19 13:43:00,70.0,55.0,30.14,North,349,1.0,-999.0,58,-99.99,,,-99.99,,2013-06-19 17:43:00,
2013-06-19 13:53:00,70.0,55.0,30.14,NNW,342,1.0,-999.0,59,-99.99,,,-99.99,,2013-06-19 17:53:00,
2013-06-19 14:02:00,70.0,55.0,30.14,NNW,342,1.0,-999.0,59,-99.99,,,-99.99,,2013-06-19 18:02:00,
2013-06-19 14:12:00,70.0,53.0,30.14,NE,48,1.0,-999.0,55,-99.99,,,-99.99,,2013-06-19 18:12:00,
2013-06-19 14:24:00,70.0,54.0,30.14,North,355,1.0,-999.0,56,-99.99,,,-99.99,,2013-06-19 18:24:00,
2013-06-19 14:33:00,70.0,54.0,30.14,North,355,1.0,-999.0,56,-99.99,,,-99.99,,2013-06-19 18:33:00,
2013-06-19 14:44:00,70.0,54.0,30.14,NNW,347,1.0,-999.0,57,-99.99,,,-99.99,,2013-06-19 18:44:00,
2013-06-19 14:53:00,70.0,55.0,30.14,NNE,18,1.0,-999.0,59,-99.99,,,-99.99,,2013-06-19 18:53:00,
2013-06-19 15:12:00,69.0,54.0,30.14,North,349,1.0,-999.0,59,-99.99,,,-99.99,,2013-06-19 19:12:00,
2013-06-19 15:22:00,69.0,52.0,30.14,NNW,348,2.0,-999.0,55,-99.99,,,-99.99,,2013-06-19 19:22:00,
2013-06-19 15:32:00,69.0,52.0,30.14,NNW,348,2.0,-999.0,55,-99.99,,,-99.99,,2013-06-19 19:32:00,
2013-06-19 15:43:00,70.0,56.0,30.13,NNE,19,1.0,-999.0,61,-99.99,,,-99.99,,2013-06-19 19:43:00,
2013-06-19 15:53:00,69.0,54.0,30.13,NE,53,1.0,-999.0,59,-99.99,,,-99.99,,2013-06-19 19:53:00,
2013-06-19 16:02:00,69.0,54.0,30.13,NE,53,1.0,-999.0,59,-99.99,,,-99.99,,2013-06-19 20:02:00,
2013-06-19 16:11:00,69.0,55.0,30.13,NNE,13,1.0,-999.0,60,-99.99,,,-99.99,,2013-06-19 20:11:00,
2013-06-19 16:22:00,69.0,53.0,30.12,North,5,1.0,-999.0,57,-99.99,,,-99.99,,2013-06-19 20:22:00,
2013-06-19 16:33:00,69.0,53.0,30.12,North,5,1.0,-999.0,57,-99.99,,,-99.99,,2013-06-19 20:33:00,
2013-06-19 16:52:00,69.0,53.0,30.11,NE,37,1.0,-999.0,57,-99.99,,,-99.99,,2013-06-19 20:52:00,
2013-06-19 17:02:00,69.0,53.0,30.11,NE,37,1.0,-999.0,57,-99.99,,,-99.99,,2013-06-19 21:02:00,
2013-06-19 17:22:00,69.0,54.0,30.11,North,351,1.0,-999.0,58,-99.99,,,-99.99,,2013-06-19 21:22:00,
2013-06-19 17:30:00,69.0,54.0,30.11,North,9,1.0,-999.0,58,-99.99,,,-99.99,,2013-06-19 21:30:00,
2013-06-19 17:44:00,69.0,54.0,30.11,NNW,339,0.0,-999.0,58,-99.99,,,-99.99,,2013-06-19 21:44:00,
2013-06-19 17:52:00,69.0,54.0,30.11,North,9,1.0,-999.0,58,-99.99,,,-99.99,,2013-06-19 21:52:00,
2013-06-19 18:02:00,69.0,54.0,30.11,North,9,1.0,-999.0,58,-99.99,,,-99.99,,2013-06-19 22:02:00,
2013-06-19 18:11:00,69.0,54.0,30.11,North,9,1.0,-999.0,58,-99.99,,,-99.99,,2013-06-19 22:11:00,
2013-06-19 18:22:00,69.0,54.0,30.11,North,9,1.0,-999.0,58,-99.99,,,-99.99,,2013-06-19 22:22:00,